sensor_id;sensor_type;location;lat;lon;timestamp;temperature;humidity
5176;DHT22;2607;50.934;6.934;2023-03-04T00:01:30;4.10;99.90
5176;DHT22;2607;50.934;6.934;2023-03-04T00:03:55;4.10;99.90
5176;DHT22;2607;50.934;6.934;2023-03-04T00:06:21;4.10;99.90
5176;DHT22;2607;50.934;6.934;2023-03-04T00:08:47;4.10;99.90
5176;DHT22;2607;50.934;6.934;2023-03-04T00:11:12;4.10;99.90
5176;DHT22;2607;50.934;6.934;2023-03-04T00:13:38;4.10;99.90
5176;DHT22;2607;50.934;6.934;2023-03-04T00:16:03;4.10;99.90
5176;DHT22;2607;50.934;6.934;2023-03-04T00:18:29;4.20;99.90
5176;DHT22;2607;50.934;6.934;2023-03-04T00:20:54;4.20;99.90
5176;DHT22;2607;50.934;6.934;2023-03-04T00:23:20;4.20;99.90
5176;DHT22;2607;50.934;6.934;2023-03-04T00:25:45;4.20;99.90
5176;DHT22;2607;50.934;6.934;2023-03-04T00:28:11;4.20;99.90
5176;DHT22;2607;50.934;6.934;2023-03-04T00:30:36;4.30;99.90
5176;DHT22;2607;50.934;6.934;2023-03-04T00:33:02;4.30;99.90
5176;DHT22;2607;50.934;6.934;2023-03-04T00:35:28;4.30;99.90
5176;DHT22;2607;50.934;6.934;2023-03-04T00:37:53;4.30;99.90
5176;DHT22;2607;50.934;6.934;2023-03-04T00:40:19;4.30;99.90
5176;DHT22;2607;50.934;6.934;2023-03-04T00:42:44;4.30;99.90
5176;DHT22;2607;50.934;6.934;2023-03-04T00:45:10;4.30;99.90
5176;DHT22;2607;50.934;6.934;2023-03-04T00:47:35;4.30;99.90
5176;DHT22;2607;50.934;6.934;2023-03-04T00:50:01;4.30;99.90
5176;DHT22;2607;50.934;6.934;2023-03-04T00:52:27;4.30;99.90
5176;DHT22;2607;50.934;6.934;2023-03-04T00:54:52;4.40;99.90
5176;DHT22;2607;50.934;6.934;2023-03-04T00:57:18;4.40;99.90
5176;DHT22;2607;50.934;6.934;2023-03-04T00:59:43;4.40;99.90
5176;DHT22;2607;50.934;6.934;2023-03-04T01:02:11;4.40;99.90
5176;DHT22;2607;50.934;6.934;2023-03-04T01:04:37;4.40;99.90
5176;DHT22;2607;50.934;6.934;2023-03-04T01:07:02;4.40;99.90
5176;DHT22;2607;50.934;6.934;2023-03-04T01:09:28;4.40;99.90
5176;DHT22;2607;50.934;6.934;2023-03-04T01:11:53;4.40;99.90
5176;DHT22;2607;50.934;6.934;2023-03-04T01:14:19;4.40;99.90
5176;DHT22;2607;50.934;6.934;2023-03-04T01:16:45;4.50;99.90
5176;DHT22;2607;50.934;6.934;2023-03-04T01:19:10;4.50;99.90
5176;DHT22;2607;50.934;6.934;2023-03-04T01:21:36;4.50;99.90
5176;DHT22;2607;50.934;6.934;2023-03-04T01:24:02;4.50;99.90
5176;DHT22;2607;50.934;6.934;2023-03-04T01:26:28;4.50;99.90
5176;DHT22;2607;50.934;6.934;2023-03-04T01:28:53;4.50;99.90
5176;DHT22;2607;50.934;6.934;2023-03-04T01:31:19;4.50;99.90
5176;DHT22;2607;50.934;6.934;2023-03-04T01:33:44;4.50;99.90
5176;DHT22;2607;50.934;6.934;2023-03-04T01:36:10;4.50;99.90
5176;DHT22;2607;50.934;6.934;2023-03-04T01:38:36;4.50;99.90
5176;DHT22;2607;50.934;6.934;2023-03-04T01:41:01;4.60;99.90
5176;DHT22;2607;50.934;6.934;2023-03-04T01:43:28;4.60;99.90
5176;DHT22;2607;50.934;6.934;2023-03-04T01:45:55;4.60;99.90
5176;DHT22;2607;50.934;6.934;2023-03-04T01:48:25;4.60;99.90
5176;DHT22;2607;50.934;6.934;2023-03-04T01:50:51;4.60;99.90
5176;DHT22;2607;50.934;6.934;2023-03-04T01:53:21;4.60;99.90
5176;DHT22;2607;50.934;6.934;2023-03-04T01:55:47;4.60;99.90
5176;DHT22;2607;50.934;6.934;2023-03-04T01:58:13;4.60;99.90
5176;DHT22;2607;50.934;6.934;2023-03-04T02:00:39;4.60;99.90
5176;DHT22;2607;50.934;6.934;2023-03-04T02:03:08;4.70;99.90
5176;DHT22;2607;50.934;6.934;2023-03-04T02:05:37;4.70;99.90
5176;DHT22;2607;50.934;6.934;2023-03-04T02:08:04;4.70;99.90
5176;DHT22;2607;50.934;6.934;2023-03-04T02:10:29;4.70;99.90
5176;DHT22;2607;50.934;6.934;2023-03-04T02:12:55;4.70;99.90
5176;DHT22;2607;50.934;6.934;2023-03-04T02:15:22;4.70;99.90
5176;DHT22;2607;50.934;6.934;2023-03-04T02:17:48;4.70;99.90
5176;DHT22;2607;50.934;6.934;2023-03-04T02:20:17;4.70;99.90
5176;DHT22;2607;50.934;6.934;2023-03-04T02:25:28;4.70;99.90
5176;DHT22;2607;50.934;6.934;2023-03-04T02:27:56;4.70;99.90
5176;DHT22;2607;50.934;6.934;2023-03-04T02:30:23;4.80;99.90
5176;DHT22;2607;50.934;6.934;2023-03-04T02:32:50;4.80;99.90
5176;DHT22;2607;50.934;6.934;2023-03-04T02:35:17;4.80;99.90
5176;DHT22;2607;50.934;6.934;2023-03-04T02:37:43;4.80;99.90
5176;DHT22;2607;50.934;6.934;2023-03-04T02:40:32;4.80;99.90
5176;DHT22;2607;50.934;6.934;2023-03-04T02:42:59;4.80;99.90
5176;DHT22;2607;50.934;6.934;2023-03-04T02:45:37;4.80;99.90
5176;DHT22;2607;50.934;6.934;2023-03-04T02:48:03;4.80;99.90
5176;DHT22;2607;50.934;6.934;2023-03-04T02:50:34;4.90;99.90
5176;DHT22;2607;50.934;6.934;2023-03-04T02:53:00;4.80;99.90
5176;DHT22;2607;50.934;6.934;2023-03-04T02:55:26;4.90;99.90
5176;DHT22;2607;50.934;6.934;2023-03-04T02:57:52;4.90;99.90
5176;DHT22;2607;50.934;6.934;2023-03-04T03:00:18;4.90;99.90
5176;DHT22;2607;50.934;6.934;2023-03-04T03:02:43;4.90;99.90
5176;DHT22;2607;50.934;6.934;2023-03-04T03:05:09;4.90;99.90
5176;DHT22;2607;50.934;6.934;2023-03-04T03:07:35;4.90;99.90
5176;DHT22;2607;50.934;6.934;2023-03-04T03:10:01;5.00;99.90
5176;DHT22;2607;50.934;6.934;2023-03-04T03:12:26;5.00;99.90
5176;DHT22;2607;50.934;6.934;2023-03-04T03:14:52;5.00;99.90
5176;DHT22;2607;50.934;6.934;2023-03-04T03:17:17;5.00;99.90
5176;DHT22;2607;50.934;6.934;2023-03-04T03:19:43;5.00;99.90
5176;DHT22;2607;50.934;6.934;2023-03-04T03:22:08;5.00;99.90
5176;DHT22;2607;50.934;6.934;2023-03-04T03:24:34;5.00;99.90
5176;DHT22;2607;50.934;6.934;2023-03-04T03:27:00;5.00;99.90
5176;DHT22;2607;50.934;6.934;2023-03-04T03:29:25;5.00;99.90
5176;DHT22;2607;50.934;6.934;2023-03-04T03:31:51;5.00;99.90
5176;DHT22;2607;50.934;6.934;2023-03-04T03:34:16;5.10;99.90
5176;DHT22;2607;50.934;6.934;2023-03-04T03:36:42;5.00;99.90
5176;DHT22;2607;50.934;6.934;2023-03-04T03:39:08;5.00;99.90
5176;DHT22;2607;50.934;6.934;2023-03-04T03:41:33;5.00;99.90
5176;DHT22;2607;50.934;6.934;2023-03-04T03:43:59;5.00;99.90
5176;DHT22;2607;50.934;6.934;2023-03-04T03:46:24;5.00;99.90
5176;DHT22;2607;50.934;6.934;2023-03-04T03:48:50;5.00;99.90
5176;DHT22;2607;50.934;6.934;2023-03-04T03:51:15;5.00;99.90
5176;DHT22;2607;50.934;6.934;2023-03-04T03:53:41;5.00;99.90
5176;DHT22;2607;50.934;6.934;2023-03-04T03:56:06;5.00;99.90
5176;DHT22;2607;50.934;6.934;2023-03-04T03:58:32;5.10;99.90
5176;DHT22;2607;50.934;6.934;2023-03-04T04:00:58;5.10;99.90
5176;DHT22;2607;50.934;6.934;2023-03-04T04:03:23;5.10;99.90
5176;DHT22;2607;50.934;6.934;2023-03-04T04:05:49;5.10;99.90
5176;DHT22;2607;50.934;6.934;2023-03-04T04:08:16;5.10;99.90
5176;DHT22;2607;50.934;6.934;2023-03-04T04:10:43;5.10;99.90
5176;DHT22;2607;50.934;6.934;2023-03-04T04:13:08;5.10;99.90
5176;DHT22;2607;50.934;6.934;2023-03-04T04:15:34;5.10;99.90
5176;DHT22;2607;50.934;6.934;2023-03-04T04:18:01;5.10;99.90
5176;DHT22;2607;50.934;6.934;2023-03-04T04:20:27;5.10;99.90
5176;DHT22;2607;50.934;6.934;2023-03-04T04:22:52;5.10;99.90
5176;DHT22;2607;50.934;6.934;2023-03-04T04:25:18;5.10;99.90
5176;DHT22;2607;50.934;6.934;2023-03-04T04:27:43;5.10;99.90
5176;DHT22;2607;50.934;6.934;2023-03-04T04:30:09;5.10;99.90
5176;DHT22;2607;50.934;6.934;2023-03-04T04:32:35;5.10;99.90
5176;DHT22;2607;50.934;6.934;2023-03-04T04:35:01;5.10;99.90
5176;DHT22;2607;50.934;6.934;2023-03-04T04:37:26;5.10;99.90
5176;DHT22;2607;50.934;6.934;2023-03-04T04:39:52;5.10;99.90
5176;DHT22;2607;50.934;6.934;2023-03-04T04:42:20;5.10;99.90
5176;DHT22;2607;50.934;6.934;2023-03-04T04:44:46;5.20;99.90
5176;DHT22;2607;50.934;6.934;2023-03-04T04:47:11;5.20;99.90
5176;DHT22;2607;50.934;6.934;2023-03-04T04:49:37;5.20;99.90
5176;DHT22;2607;50.934;6.934;2023-03-04T04:52:03;5.20;99.90
5176;DHT22;2607;50.934;6.934;2023-03-04T04:54:28;5.20;99.90
5176;DHT22;2607;50.934;6.934;2023-03-04T04:56:54;5.20;99.90
5176;DHT22;2607;50.934;6.934;2023-03-04T04:59:20;5.20;99.90
5176;DHT22;2607;50.934;6.934;2023-03-04T05:01:45;5.20;99.90
5176;DHT22;2607;50.934;6.934;2023-03-04T05:04:11;5.20;99.90
5176;DHT22;2607;50.934;6.934;2023-03-04T05:06:37;5.20;99.90
5176;DHT22;2607;50.934;6.934;2023-03-04T05:09:02;5.20;99.90
5176;DHT22;2607;50.934;6.934;2023-03-04T05:11:28;5.20;99.90
5176;DHT22;2607;50.934;6.934;2023-03-04T05:13:54;5.30;99.90
5176;DHT22;2607;50.934;6.934;2023-03-04T05:16:20;5.30;99.90
5176;DHT22;2607;50.934;6.934;2023-03-04T05:18:45;5.30;99.90
5176;DHT22;2607;50.934;6.934;2023-03-04T05:21:11;5.30;99.90
5176;DHT22;2607;50.934;6.934;2023-03-04T05:23:40;5.30;99.90
5176;DHT22;2607;50.934;6.934;2023-03-04T05:26:07;5.30;99.90
5176;DHT22;2607;50.934;6.934;2023-03-04T05:28:33;5.30;99.90
5176;DHT22;2607;50.934;6.934;2023-03-04T05:30:59;5.30;99.90
5176;DHT22;2607;50.934;6.934;2023-03-04T05:33:24;5.30;99.90
5176;DHT22;2607;50.934;6.934;2023-03-04T05:35:50;5.30;99.90
5176;DHT22;2607;50.934;6.934;2023-03-04T05:38:17;5.30;99.90
5176;DHT22;2607;50.934;6.934;2023-03-04T05:40:44;5.30;99.90
5176;DHT22;2607;50.934;6.934;2023-03-04T05:43:10;5.30;99.90
5176;DHT22;2607;50.934;6.934;2023-03-04T05:45:36;5.30;99.90
5176;DHT22;2607;50.934;6.934;2023-03-04T05:48:03;5.30;99.90
5176;DHT22;2607;50.934;6.934;2023-03-04T05:50:29;5.30;99.90
5176;DHT22;2607;50.934;6.934;2023-03-04T05:52:54;5.30;99.90
5176;DHT22;2607;50.934;6.934;2023-03-04T05:55:20;5.30;99.90
5176;DHT22;2607;50.934;6.934;2023-03-04T05:57:46;5.30;99.90
5176;DHT22;2607;50.934;6.934;2023-03-04T06:00:12;5.30;99.90
5176;DHT22;2607;50.934;6.934;2023-03-04T06:02:39;5.30;99.90
5176;DHT22;2607;50.934;6.934;2023-03-04T06:05:06;5.30;99.90
5176;DHT22;2607;50.934;6.934;2023-03-04T06:07:32;5.30;99.90
5176;DHT22;2607;50.934;6.934;2023-03-04T06:09:58;5.30;99.90
5176;DHT22;2607;50.934;6.934;2023-03-04T06:12:23;5.30;99.90
5176;DHT22;2607;50.934;6.934;2023-03-04T06:14:49;5.30;99.90
5176;DHT22;2607;50.934;6.934;2023-03-04T06:17:15;5.30;99.90
5176;DHT22;2607;50.934;6.934;2023-03-04T06:19:40;5.30;99.90
5176;DHT22;2607;50.934;6.934;2023-03-04T06:22:07;5.30;99.90
5176;DHT22;2607;50.934;6.934;2023-03-04T06:24:32;5.40;99.90
5176;DHT22;2607;50.934;6.934;2023-03-04T06:26:58;5.40;99.90
5176;DHT22;2607;50.934;6.934;2023-03-04T06:29:23;5.40;99.90
5176;DHT22;2607;50.934;6.934;2023-03-04T06:31:49;5.40;99.90
5176;DHT22;2607;50.934;6.934;2023-03-04T06:34:14;5.40;99.90
5176;DHT22;2607;50.934;6.934;2023-03-04T06:36:40;5.40;99.90
5176;DHT22;2607;50.934;6.934;2023-03-04T06:39:06;5.40;99.90
5176;DHT22;2607;50.934;6.934;2023-03-04T06:41:32;5.40;99.90
5176;DHT22;2607;50.934;6.934;2023-03-04T06:43:58;5.60;99.90
5176;DHT22;2607;50.934;6.934;2023-03-04T06:46:24;5.50;99.90
5176;DHT22;2607;50.934;6.934;2023-03-04T06:48:49;5.60;99.90
5176;DHT22;2607;50.934;6.934;2023-03-04T06:51:15;5.60;99.90
5176;DHT22;2607;50.934;6.934;2023-03-04T06:53:42;5.60;99.90
5176;DHT22;2607;50.934;6.934;2023-03-04T06:56:10;5.60;99.90
5176;DHT22;2607;50.934;6.934;2023-03-04T06:58:35;5.60;99.90
5176;DHT22;2607;50.934;6.934;2023-03-04T07:01:12;5.60;99.90
5176;DHT22;2607;50.934;6.934;2023-03-04T07:03:38;5.60;99.90
5176;DHT22;2607;50.934;6.934;2023-03-04T07:06:03;5.60;99.90
5176;DHT22;2607;50.934;6.934;2023-03-04T07:08:29;5.60;99.90
5176;DHT22;2607;50.934;6.934;2023-03-04T07:10:55;5.60;99.90
5176;DHT22;2607;50.934;6.934;2023-03-04T07:13:20;5.60;99.90
5176;DHT22;2607;50.934;6.934;2023-03-04T07:15:46;5.70;99.90
5176;DHT22;2607;50.934;6.934;2023-03-04T07:18:11;5.70;99.90
5176;DHT22;2607;50.934;6.934;2023-03-04T07:20:37;5.70;99.90
5176;DHT22;2607;50.934;6.934;2023-03-04T07:23:02;5.80;99.90
5176;DHT22;2607;50.934;6.934;2023-03-04T07:25:28;5.80;99.90
5176;DHT22;2607;50.934;6.934;2023-03-04T07:27:53;5.70;99.90
5176;DHT22;2607;50.934;6.934;2023-03-04T07:30:19;5.70;99.90
5176;DHT22;2607;50.934;6.934;2023-03-04T07:32:45;5.70;99.90
5176;DHT22;2607;50.934;6.934;2023-03-04T07:35:10;5.70;99.90
5176;DHT22;2607;50.934;6.934;2023-03-04T07:37:36;5.70;99.90
5176;DHT22;2607;50.934;6.934;2023-03-04T07:40:01;5.70;99.90
5176;DHT22;2607;50.934;6.934;2023-03-04T07:42:27;5.70;99.90
5176;DHT22;2607;50.934;6.934;2023-03-04T07:44:52;5.70;99.90
5176;DHT22;2607;50.934;6.934;2023-03-04T07:47:19;5.80;99.90
5176;DHT22;2607;50.934;6.934;2023-03-04T07:49:45;5.80;99.90
5176;DHT22;2607;50.934;6.934;2023-03-04T07:52:11;5.80;99.90
5176;DHT22;2607;50.934;6.934;2023-03-04T07:54:38;5.80;99.90
5176;DHT22;2607;50.934;6.934;2023-03-04T07:57:04;5.80;99.90
5176;DHT22;2607;50.934;6.934;2023-03-04T07:59:29;5.80;99.90
5176;DHT22;2607;50.934;6.934;2023-03-04T08:01:57;5.90;99.90
5176;DHT22;2607;50.934;6.934;2023-03-04T08:04:22;5.90;99.90
5176;DHT22;2607;50.934;6.934;2023-03-04T08:06:48;5.90;99.90
5176;DHT22;2607;50.934;6.934;2023-03-04T08:09:13;5.90;99.90
5176;DHT22;2607;50.934;6.934;2023-03-04T08:11:40;5.90;99.90
5176;DHT22;2607;50.934;6.934;2023-03-04T08:14:06;5.90;99.90
5176;DHT22;2607;50.934;6.934;2023-03-04T08:16:32;5.90;99.90
5176;DHT22;2607;50.934;6.934;2023-03-04T08:19:00;5.90;99.90
5176;DHT22;2607;50.934;6.934;2023-03-04T08:21:27;5.90;99.90
5176;DHT22;2607;50.934;6.934;2023-03-04T08:23:53;5.90;99.90
5176;DHT22;2607;50.934;6.934;2023-03-04T08:26:30;5.90;99.90
5176;DHT22;2607;50.934;6.934;2023-03-04T08:28:56;5.90;99.90
5176;DHT22;2607;50.934;6.934;2023-03-04T08:31:22;5.90;99.90
5176;DHT22;2607;50.934;6.934;2023-03-04T08:33:48;5.90;99.90
5176;DHT22;2607;50.934;6.934;2023-03-04T08:36:15;5.90;99.90
5176;DHT22;2607;50.934;6.934;2023-03-04T08:38:41;6.00;99.90
5176;DHT22;2607;50.934;6.934;2023-03-04T08:41:07;6.00;99.90
5176;DHT22;2607;50.934;6.934;2023-03-04T08:43:33;6.00;99.90
5176;DHT22;2607;50.934;6.934;2023-03-04T08:45:59;6.00;99.90
5176;DHT22;2607;50.934;6.934;2023-03-04T08:48:25;6.00;99.90
5176;DHT22;2607;50.934;6.934;2023-03-04T08:50:51;6.00;99.90
5176;DHT22;2607;50.934;6.934;2023-03-04T08:53:18;6.00;99.90
5176;DHT22;2607;50.934;6.934;2023-03-04T08:55:45;6.10;99.90
5176;DHT22;2607;50.934;6.934;2023-03-04T08:58:11;6.10;99.90
5176;DHT22;2607;50.934;6.934;2023-03-04T09:00:39;6.10;99.90
5176;DHT22;2607;50.934;6.934;2023-03-04T09:03:07;6.10;99.90
5176;DHT22;2607;50.934;6.934;2023-03-04T09:05:33;6.10;99.90
5176;DHT22;2607;50.934;6.934;2023-03-04T09:07:58;6.20;99.90
5176;DHT22;2607;50.934;6.934;2023-03-04T09:10:24;6.30;99.90
5176;DHT22;2607;50.934;6.934;2023-03-04T09:12:50;6.30;99.90
5176;DHT22;2607;50.934;6.934;2023-03-04T09:15:16;6.40;99.90
5176;DHT22;2607;50.934;6.934;2023-03-04T09:17:42;6.50;99.90
5176;DHT22;2607;50.934;6.934;2023-03-04T09:20:09;6.50;99.90
5176;DHT22;2607;50.934;6.934;2023-03-04T09:22:36;6.50;99.90
5176;DHT22;2607;50.934;6.934;2023-03-04T09:25:01;6.60;99.90
5176;DHT22;2607;50.934;6.934;2023-03-04T09:27:27;6.60;99.90
5176;DHT22;2607;50.934;6.934;2023-03-04T09:29:53;6.70;99.90
5176;DHT22;2607;50.934;6.934;2023-03-04T09:32:18;6.70;99.90
5176;DHT22;2607;50.934;6.934;2023-03-04T09:34:44;6.70;99.90
5176;DHT22;2607;50.934;6.934;2023-03-04T09:37:10;6.80;99.90
5176;DHT22;2607;50.934;6.934;2023-03-04T09:39:35;6.80;99.90
5176;DHT22;2607;50.934;6.934;2023-03-04T09:42:01;6.90;99.90
5176;DHT22;2607;50.934;6.934;2023-03-04T09:44:42;7.00;99.90
5176;DHT22;2607;50.934;6.934;2023-03-04T09:47:13;7.10;99.90
5176;DHT22;2607;50.934;6.934;2023-03-04T09:49:42;7.10;99.90
5176;DHT22;2607;50.934;6.934;2023-03-04T09:52:25;7.10;99.90
5176;DHT22;2607;50.934;6.934;2023-03-04T10:01:03;7.10;99.90
5176;DHT22;2607;50.934;6.934;2023-03-04T10:03:42;7.10;99.90
5176;DHT22;2607;50.934;6.934;2023-03-04T10:06:12;7.10;99.90
5176;DHT22;2607;50.934;6.934;2023-03-04T10:08:49;7.20;99.90
5176;DHT22;2607;50.934;6.934;2023-03-04T10:11:24;7.10;99.90
5176;DHT22;2607;50.934;6.934;2023-03-04T10:16:28;7.10;99.90
5176;DHT22;2607;50.934;6.934;2023-03-04T10:19:01;7.00;99.90
5176;DHT22;2607;50.934;6.934;2023-03-04T10:21:57;7.10;99.90
5176;DHT22;2607;50.934;6.934;2023-03-04T10:24:26;7.10;99.90
5176;DHT22;2607;50.934;6.934;2023-03-04T10:26:57;7.20;99.90
5176;DHT22;2607;50.934;6.934;2023-03-04T10:29:28;7.20;99.90
5176;DHT22;2607;50.934;6.934;2023-03-04T10:31:55;7.10;99.90
5176;DHT22;2607;50.934;6.934;2023-03-04T10:34:21;7.10;99.90
5176;DHT22;2607;50.934;6.934;2023-03-04T10:37:02;7.10;99.90
5176;DHT22;2607;50.934;6.934;2023-03-04T10:39:33;7.20;99.90
5176;DHT22;2607;50.934;6.934;2023-03-04T10:42:04;7.30;99.90
5176;DHT22;2607;50.934;6.934;2023-03-04T10:44:31;7.30;99.90
5176;DHT22;2607;50.934;6.934;2023-03-04T10:46:59;7.30;99.90
5176;DHT22;2607;50.934;6.934;2023-03-04T10:49:25;7.30;99.90
5176;DHT22;2607;50.934;6.934;2023-03-04T10:51:53;7.40;99.90
5176;DHT22;2607;50.934;6.934;2023-03-04T10:57:05;7.40;99.90
5176;DHT22;2607;50.934;6.934;2023-03-04T10:59:42;7.50;99.90
5176;DHT22;2607;50.934;6.934;2023-03-04T11:04:50;7.50;99.90
5176;DHT22;2607;50.934;6.934;2023-03-04T11:07:18;7.60;99.90
5176;DHT22;2607;50.934;6.934;2023-03-04T11:09:44;7.60;99.90
5176;DHT22;2607;50.934;6.934;2023-03-04T11:12:12;7.60;99.90
5176;DHT22;2607;50.934;6.934;2023-03-04T11:14:49;7.50;99.90
5176;DHT22;2607;50.934;6.934;2023-03-04T11:19:56;7.60;99.90
5176;DHT22;2607;50.934;6.934;2023-03-04T11:22:23;7.60;99.90
5176;DHT22;2607;50.934;6.934;2023-03-04T11:25:11;7.60;99.90
5176;DHT22;2607;50.934;6.934;2023-03-04T11:27:45;7.70;99.90
5176;DHT22;2607;50.934;6.934;2023-03-04T11:33:12;7.80;99.90
5176;DHT22;2607;50.934;6.934;2023-03-04T11:35:49;7.90;99.90
5176;DHT22;2607;50.934;6.934;2023-03-04T11:38:20;7.90;99.90
5176;DHT22;2607;50.934;6.934;2023-03-04T11:40:53;7.80;99.90
5176;DHT22;2607;50.934;6.934;2023-03-04T11:43:48;7.80;99.90
5176;DHT22;2607;50.934;6.934;2023-03-04T11:46:33;7.80;99.90
5176;DHT22;2607;50.934;6.934;2023-03-04T11:57:17;7.60;99.90
5176;DHT22;2607;50.934;6.934;2023-03-04T12:03:13;7.60;99.90
5176;DHT22;2607;50.934;6.934;2023-03-04T12:10:59;7.60;99.90
5176;DHT22;2607;50.934;6.934;2023-03-04T12:13:51;7.70;99.90
5176;DHT22;2607;50.934;6.934;2023-03-04T12:19:30;7.70;99.90
5176;DHT22;2607;50.934;6.934;2023-03-04T12:36:01;8.00;99.90
5176;DHT22;2607;50.934;6.934;2023-03-04T12:44:13;8.20;99.90
5176;DHT22;2607;50.934;6.934;2023-03-04T12:49:46;8.20;99.90
5176;DHT22;2607;50.934;6.934;2023-03-04T12:55:03;8.30;99.90
5176;DHT22;2607;50.934;6.934;2023-03-04T12:57:32;8.30;99.90
5176;DHT22;2607;50.934;6.934;2023-03-04T13:03:06;8.40;99.90
5176;DHT22;2607;50.934;6.934;2023-03-04T13:16:39;8.50;99.90
5176;DHT22;2607;50.934;6.934;2023-03-04T13:36:04;8.50;99.90
5176;DHT22;2607;50.934;6.934;2023-03-04T13:38:35;8.60;99.90
5176;DHT22;2607;50.934;6.934;2023-03-04T13:43:49;8.70;99.90
5176;DHT22;2607;50.934;6.934;2023-03-04T13:51:24;8.60;99.90
5176;DHT22;2607;50.934;6.934;2023-03-04T13:56:37;8.60;99.90
5176;DHT22;2607;50.934;6.934;2023-03-04T14:01:46;8.60;99.90
5176;DHT22;2607;50.934;6.934;2023-03-04T14:04:19;8.60;99.90
5176;DHT22;2607;50.934;6.934;2023-03-04T14:06:49;8.60;99.90
5176;DHT22;2607;50.934;6.934;2023-03-04T14:09:24;8.60;99.90
5176;DHT22;2607;50.934;6.934;2023-03-04T14:11:54;8.60;99.90
5176;DHT22;2607;50.934;6.934;2023-03-04T14:14:28;8.50;99.90
5176;DHT22;2607;50.934;6.934;2023-03-04T14:17:00;8.60;99.90
5176;DHT22;2607;50.934;6.934;2023-03-04T14:19:32;8.50;99.90
5176;DHT22;2607;50.934;6.934;2023-03-04T14:22:17;8.50;99.90
5176;DHT22;2607;50.934;6.934;2023-03-04T14:27:30;8.30;99.90
5176;DHT22;2607;50.934;6.934;2023-03-04T14:29:59;8.30;99.90
5176;DHT22;2607;50.934;6.934;2023-03-04T14:32:26;8.30;99.90
5176;DHT22;2607;50.934;6.934;2023-03-04T14:34:57;8.20;99.90
5176;DHT22;2607;50.934;6.934;2023-03-04T14:37:37;8.20;99.90
5176;DHT22;2607;50.934;6.934;2023-03-04T14:40:09;8.20;99.90
5176;DHT22;2607;50.934;6.934;2023-03-04T14:42:40;8.20;99.90
5176;DHT22;2607;50.934;6.934;2023-03-04T14:45:11;8.20;99.90
5176;DHT22;2607;50.934;6.934;2023-03-04T14:47:40;8.30;99.90
5176;DHT22;2607;50.934;6.934;2023-03-04T14:50:15;8.30;99.90
5176;DHT22;2607;50.934;6.934;2023-03-04T14:52:43;8.30;99.90
5176;DHT22;2607;50.934;6.934;2023-03-04T14:55:20;8.30;99.90
5176;DHT22;2607;50.934;6.934;2023-03-04T14:58:06;8.30;99.90
5176;DHT22;2607;50.934;6.934;2023-03-04T15:00:37;8.40;99.90
5176;DHT22;2607;50.934;6.934;2023-03-04T15:03:25;8.40;99.90
5176;DHT22;2607;50.934;6.934;2023-03-04T15:05:52;8.40;99.90
5176;DHT22;2607;50.934;6.934;2023-03-04T15:10:58;8.40;99.90
5176;DHT22;2607;50.934;6.934;2023-03-04T15:16:06;8.30;99.90
5176;DHT22;2607;50.934;6.934;2023-03-04T15:18:33;8.30;99.90
5176;DHT22;2607;50.934;6.934;2023-03-04T15:23:30;8.30;99.90
5176;DHT22;2607;50.934;6.934;2023-03-04T15:26:01;8.20;99.90
5176;DHT22;2607;50.934;6.934;2023-03-04T15:28:35;8.20;99.90
5176;DHT22;2607;50.934;6.934;2023-03-04T15:31:02;8.10;99.90
5176;DHT22;2607;50.934;6.934;2023-03-04T15:33:28;8.10;99.90
5176;DHT22;2607;50.934;6.934;2023-03-04T15:35:58;8.00;99.90
5176;DHT22;2607;50.934;6.934;2023-03-04T15:38:24;8.00;99.90
5176;DHT22;2607;50.934;6.934;2023-03-04T15:40:51;8.00;99.90
5176;DHT22;2607;50.934;6.934;2023-03-04T15:43:18;7.90;99.90
5176;DHT22;2607;50.934;6.934;2023-03-04T15:45:45;7.90;99.90
5176;DHT22;2607;50.934;6.934;2023-03-04T15:48:14;7.90;99.90
5176;DHT22;2607;50.934;6.934;2023-03-04T15:50:47;7.80;99.90
5176;DHT22;2607;50.934;6.934;2023-03-04T15:55:50;7.80;99.90
5176;DHT22;2607;50.934;6.934;2023-03-04T15:58:16;7.70;99.90
5176;DHT22;2607;50.934;6.934;2023-03-04T16:00:42;7.70;99.90
5176;DHT22;2607;50.934;6.934;2023-03-04T16:03:14;7.70;99.90
5176;DHT22;2607;50.934;6.934;2023-03-04T16:05:40;7.70;99.90
5176;DHT22;2607;50.934;6.934;2023-03-04T16:08:08;7.70;99.90
5176;DHT22;2607;50.934;6.934;2023-03-04T16:10:34;7.70;99.90
5176;DHT22;2607;50.934;6.934;2023-03-04T16:13:00;7.60;99.90
5176;DHT22;2607;50.934;6.934;2023-03-04T16:15:28;7.60;99.90
5176;DHT22;2607;50.934;6.934;2023-03-04T16:17:54;7.60;99.90
5176;DHT22;2607;50.934;6.934;2023-03-04T16:20:23;7.60;99.90
5176;DHT22;2607;50.934;6.934;2023-03-04T16:22:52;7.60;99.90
5176;DHT22;2607;50.934;6.934;2023-03-04T16:25:19;7.60;99.90
5176;DHT22;2607;50.934;6.934;2023-03-04T16:27:45;7.60;99.90
5176;DHT22;2607;50.934;6.934;2023-03-04T16:30:15;7.60;99.90
5176;DHT22;2607;50.934;6.934;2023-03-04T16:32:41;7.60;99.90
5176;DHT22;2607;50.934;6.934;2023-03-04T16:35:07;7.60;99.90
5176;DHT22;2607;50.934;6.934;2023-03-04T16:37:32;7.60;99.90
5176;DHT22;2607;50.934;6.934;2023-03-04T16:39:58;7.60;99.90
5176;DHT22;2607;50.934;6.934;2023-03-04T16:42:24;7.60;99.90
5176;DHT22;2607;50.934;6.934;2023-03-04T16:44:52;7.50;99.90
5176;DHT22;2607;50.934;6.934;2023-03-04T16:47:17;7.60;99.90
5176;DHT22;2607;50.934;6.934;2023-03-04T16:49:43;7.50;99.90
5176;DHT22;2607;50.934;6.934;2023-03-04T16:52:19;7.50;99.90
5176;DHT22;2607;50.934;6.934;2023-03-04T16:54:47;7.50;99.90
5176;DHT22;2607;50.934;6.934;2023-03-04T16:57:12;7.50;99.90
5176;DHT22;2607;50.934;6.934;2023-03-04T16:59:38;7.40;99.90
5176;DHT22;2607;50.934;6.934;2023-03-04T17:02:12;7.40;99.90
5176;DHT22;2607;50.934;6.934;2023-03-04T17:04:38;7.40;99.90
5176;DHT22;2607;50.934;6.934;2023-03-04T17:07:04;7.40;99.90
5176;DHT22;2607;50.934;6.934;2023-03-04T17:09:29;7.30;99.90
5176;DHT22;2607;50.934;6.934;2023-03-04T17:11:55;7.30;99.90
5176;DHT22;2607;50.934;6.934;2023-03-04T17:14:21;7.30;99.90
5176;DHT22;2607;50.934;6.934;2023-03-04T17:16:47;7.30;99.90
5176;DHT22;2607;50.934;6.934;2023-03-04T17:19:13;7.30;99.90
5176;DHT22;2607;50.934;6.934;2023-03-04T17:21:38;7.20;99.90
5176;DHT22;2607;50.934;6.934;2023-03-04T17:24:04;7.20;99.90
5176;DHT22;2607;50.934;6.934;2023-03-04T17:26:31;7.20;99.90
5176;DHT22;2607;50.934;6.934;2023-03-04T17:28:56;7.20;99.90
5176;DHT22;2607;50.934;6.934;2023-03-04T17:31:22;7.20;99.90
5176;DHT22;2607;50.934;6.934;2023-03-04T17:33:48;7.20;99.90
5176;DHT22;2607;50.934;6.934;2023-03-04T17:36:15;7.20;99.90
5176;DHT22;2607;50.934;6.934;2023-03-04T17:38:41;7.20;99.90
5176;DHT22;2607;50.934;6.934;2023-03-04T17:41:10;7.20;99.90
5176;DHT22;2607;50.934;6.934;2023-03-04T17:43:37;7.20;99.90
5176;DHT22;2607;50.934;6.934;2023-03-04T17:46:04;7.20;99.90
5176;DHT22;2607;50.934;6.934;2023-03-04T17:48:30;7.20;99.90
5176;DHT22;2607;50.934;6.934;2023-03-04T17:50:57;7.20;99.90
5176;DHT22;2607;50.934;6.934;2023-03-04T17:53:23;7.20;99.90
5176;DHT22;2607;50.934;6.934;2023-03-04T17:55:57;7.20;99.90
5176;DHT22;2607;50.934;6.934;2023-03-04T17:58:25;7.20;99.90
5176;DHT22;2607;50.934;6.934;2023-03-04T18:00:52;7.20;99.90
5176;DHT22;2607;50.934;6.934;2023-03-04T18:03:18;7.20;99.90
5176;DHT22;2607;50.934;6.934;2023-03-04T18:05:43;7.20;99.90
5176;DHT22;2607;50.934;6.934;2023-03-04T18:08:09;7.20;99.90
5176;DHT22;2607;50.934;6.934;2023-03-04T18:10:34;7.20;99.90
5176;DHT22;2607;50.934;6.934;2023-03-04T18:13:00;7.20;99.90
5176;DHT22;2607;50.934;6.934;2023-03-04T18:15:26;7.20;99.90
5176;DHT22;2607;50.934;6.934;2023-03-04T18:17:51;7.20;99.90
5176;DHT22;2607;50.934;6.934;2023-03-04T18:20:17;7.20;99.90
5176;DHT22;2607;50.934;6.934;2023-03-04T18:22:43;7.20;99.90
5176;DHT22;2607;50.934;6.934;2023-03-04T18:25:10;7.20;99.90